sensor_id;sensor_type;location;lat;lon;timestamp;temperature;humidity
8792;DHT22;4432;50.890;4.744;2023-08-12T00:01:51;20.60;99.90
8792;DHT22;4432;50.890;4.744;2023-08-12T00:04:16;20.70;99.90
8792;DHT22;4432;50.890;4.744;2023-08-12T00:06:43;20.70;99.90
8792;DHT22;4432;50.890;4.744;2023-08-12T00:09:09;20.70;99.90
8792;DHT22;4432;50.890;4.744;2023-08-12T00:11:37;20.60;99.90
8792;DHT22;4432;50.890;4.744;2023-08-12T00:14:04;20.60;99.90
8792;DHT22;4432;50.890;4.744;2023-08-12T00:16:30;20.60;99.90
8792;DHT22;4432;50.890;4.744;2023-08-12T00:18:56;20.60;99.90
8792;DHT22;4432;50.890;4.744;2023-08-12T00:21:22;20.60;99.90
8792;DHT22;4432;50.890;4.744;2023-08-12T00:23:47;20.60;99.90
8792;DHT22;4432;50.890;4.744;2023-08-12T00:26:15;20.60;99.90
8792;DHT22;4432;50.890;4.744;2023-08-12T00:28:41;20.50;99.90
8792;DHT22;4432;50.890;4.744;2023-08-12T00:31:07;20.40;99.90
8792;DHT22;4432;50.890;4.744;2023-08-12T00:33:32;20.50;99.90
8792;DHT22;4432;50.890;4.744;2023-08-12T00:35:58;20.40;99.90
8792;DHT22;4432;50.890;4.744;2023-08-12T00:38:24;20.40;99.90
8792;DHT22;4432;50.890;4.744;2023-08-12T00:40:50;20.40;99.90
8792;DHT22;4432;50.890;4.744;2023-08-12T00:43:16;20.40;99.90
8792;DHT22;4432;50.890;4.744;2023-08-12T00:45:42;20.40;99.90
8792;DHT22;4432;50.890;4.744;2023-08-12T00:48:08;20.40;99.90
8792;DHT22;4432;50.890;4.744;2023-08-12T00:50:36;20.40;99.90
8792;DHT22;4432;50.890;4.744;2023-08-12T00:53:03;20.40;99.90
8792;DHT22;4432;50.890;4.744;2023-08-12T00:55:32;20.40;99.90
8792;DHT22;4432;50.890;4.744;2023-08-12T00:57:58;20.40;99.90
8792;DHT22;4432;50.890;4.744;2023-08-12T01:00:24;20.40;99.90
8792;DHT22;4432;50.890;4.744;2023-08-12T01:02:51;20.40;99.90
8792;DHT22;4432;50.890;4.744;2023-08-12T01:05:18;20.40;99.90
8792;DHT22;4432;50.890;4.744;2023-08-12T01:07:44;20.40;99.90
8792;DHT22;4432;50.890;4.744;2023-08-12T01:10:12;20.40;99.90
8792;DHT22;4432;50.890;4.744;2023-08-12T01:12:55;20.40;99.90
8792;DHT22;4432;50.890;4.744;2023-08-12T01:15:24;20.40;99.90
8792;DHT22;4432;50.890;4.744;2023-08-12T01:17:53;20.40;99.90
8792;DHT22;4432;50.890;4.744;2023-08-12T01:20:23;20.30;99.90
8792;DHT22;4432;50.890;4.744;2023-08-12T01:23:14;20.30;99.90
8792;DHT22;4432;50.890;4.744;2023-08-12T01:25:40;20.30;99.90
8792;DHT22;4432;50.890;4.744;2023-08-12T01:28:06;20.30;99.90
8792;DHT22;4432;50.890;4.744;2023-08-12T01:30:35;20.30;99.90
8792;DHT22;4432;50.890;4.744;2023-08-12T01:33:12;20.30;99.90
8792;DHT22;4432;50.890;4.744;2023-08-12T01:35:43;20.30;99.90
8792;DHT22;4432;50.890;4.744;2023-08-12T01:38:10;20.30;99.90
8792;DHT22;4432;50.890;4.744;2023-08-12T01:40:38;20.30;99.90
8792;DHT22;4432;50.890;4.744;2023-08-12T01:43:05;20.30;99.90
8792;DHT22;4432;50.890;4.744;2023-08-12T01:45:32;20.30;99.90
8792;DHT22;4432;50.890;4.744;2023-08-12T01:47:58;20.30;99.90
8792;DHT22;4432;50.890;4.744;2023-08-12T01:50:24;20.30;99.90
8792;DHT22;4432;50.890;4.744;2023-08-12T01:52:51;20.30;99.90
8792;DHT22;4432;50.890;4.744;2023-08-12T01:55:17;20.20;99.90
8792;DHT22;4432;50.890;4.744;2023-08-12T01:57:43;20.20;99.90
8792;DHT22;4432;50.890;4.744;2023-08-12T02:00:09;20.20;99.90
8792;DHT22;4432;50.890;4.744;2023-08-12T02:02:35;20.20;99.90
8792;DHT22;4432;50.890;4.744;2023-08-12T02:05:01;20.20;99.90
8792;DHT22;4432;50.890;4.744;2023-08-12T02:07:26;20.30;99.90
8792;DHT22;4432;50.890;4.744;2023-08-12T02:09:52;20.20;99.90
8792;DHT22;4432;50.890;4.744;2023-08-12T02:12:18;20.20;99.90
8792;DHT22;4432;50.890;4.744;2023-08-12T02:14:44;20.20;99.90
8792;DHT22;4432;50.890;4.744;2023-08-12T02:17:09;20.30;99.90
8792;DHT22;4432;50.890;4.744;2023-08-12T02:19:35;20.30;99.90
8792;DHT22;4432;50.890;4.744;2023-08-12T02:22:02;20.30;99.90
8792;DHT22;4432;50.890;4.744;2023-08-12T02:24:29;20.30;99.90
8792;DHT22;4432;50.890;4.744;2023-08-12T02:26:55;20.30;99.90
8792;DHT22;4432;50.890;4.744;2023-08-12T02:29:20;20.20;99.90
8792;DHT22;4432;50.890;4.744;2023-08-12T02:31:46;20.30;99.90
8792;DHT22;4432;50.890;4.744;2023-08-12T02:34:12;20.30;99.90
8792;DHT22;4432;50.890;4.744;2023-08-12T02:36:37;20.30;99.90
8792;DHT22;4432;50.890;4.744;2023-08-12T02:39:03;20.30;99.90
8792;DHT22;4432;50.890;4.744;2023-08-12T02:41:30;20.30;99.90
8792;DHT22;4432;50.890;4.744;2023-08-12T02:43:56;20.20;99.90
8792;DHT22;4432;50.890;4.744;2023-08-12T02:46:22;20.20;99.90
8792;DHT22;4432;50.890;4.744;2023-08-12T02:48:48;20.20;99.90
8792;DHT22;4432;50.890;4.744;2023-08-12T02:51:13;20.20;99.90
8792;DHT22;4432;50.890;4.744;2023-08-12T02:53:39;20.20;99.90
8792;DHT22;4432;50.890;4.744;2023-08-12T02:56:05;20.20;99.90
8792;DHT22;4432;50.890;4.744;2023-08-12T02:58:31;20.30;99.90
8792;DHT22;4432;50.890;4.744;2023-08-12T03:00:57;20.30;99.90
8792;DHT22;4432;50.890;4.744;2023-08-12T03:03:22;20.20;99.90
8792;DHT22;4432;50.890;4.744;2023-08-12T03:05:49;20.20;99.90
8792;DHT22;4432;50.890;4.744;2023-08-12T03:08:15;20.20;99.90
8792;DHT22;4432;50.890;4.744;2023-08-12T03:10:41;20.20;99.90
8792;DHT22;4432;50.890;4.744;2023-08-12T03:13:07;20.20;99.90
8792;DHT22;4432;50.890;4.744;2023-08-12T03:15:33;20.20;99.90
8792;DHT22;4432;50.890;4.744;2023-08-12T03:17:58;20.20;99.90
8792;DHT22;4432;50.890;4.744;2023-08-12T03:20:24;20.20;99.90
8792;DHT22;4432;50.890;4.744;2023-08-12T03:22:50;20.20;99.90
8792;DHT22;4432;50.890;4.744;2023-08-12T03:25:15;20.20;99.90
8792;DHT22;4432;50.890;4.744;2023-08-12T03:27:42;20.10;99.90
8792;DHT22;4432;50.890;4.744;2023-08-12T03:30:08;20.10;99.90
8792;DHT22;4432;50.890;4.744;2023-08-12T03:32:34;20.10;99.90
8792;DHT22;4432;50.890;4.744;2023-08-12T03:35:00;20.10;99.90
8792;DHT22;4432;50.890;4.744;2023-08-12T03:37:26;20.20;99.90
8792;DHT22;4432;50.890;4.744;2023-08-12T03:39:51;20.20;99.90
8792;DHT22;4432;50.890;4.744;2023-08-12T03:42:17;20.20;99.90
8792;DHT22;4432;50.890;4.744;2023-08-12T03:44:44;20.10;99.90
8792;DHT22;4432;50.890;4.744;2023-08-12T03:47:10;20.10;99.90
8792;DHT22;4432;50.890;4.744;2023-08-12T03:49:37;20.10;99.90
8792;DHT22;4432;50.890;4.744;2023-08-12T03:52:03;20.00;99.90
8792;DHT22;4432;50.890;4.744;2023-08-12T03:54:29;20.00;99.90
8792;DHT22;4432;50.890;4.744;2023-08-12T03:56:55;20.00;99.90
8792;DHT22;4432;50.890;4.744;2023-08-12T03:59:21;20.00;99.90
8792;DHT22;4432;50.890;4.744;2023-08-12T04:01:47;20.00;99.90
8792;DHT22;4432;50.890;4.744;2023-08-12T04:04:13;20.00;99.90
8792;DHT22;4432;50.890;4.744;2023-08-12T04:06:38;20.00;99.90
8792;DHT22;4432;50.890;4.744;2023-08-12T04:09:04;19.90;99.90
8792;DHT22;4432;50.890;4.744;2023-08-12T04:11:30;20.00;99.90
8792;DHT22;4432;50.890;4.744;2023-08-12T04:13:56;20.00;99.90
8792;DHT22;4432;50.890;4.744;2023-08-12T04:16:23;19.90;99.90
8792;DHT22;4432;50.890;4.744;2023-08-12T04:18:48;19.90;99.90
8792;DHT22;4432;50.890;4.744;2023-08-12T04:21:14;19.90;99.90
8792;DHT22;4432;50.890;4.744;2023-08-12T04:23:40;20.00;99.90
8792;DHT22;4432;50.890;4.744;2023-08-12T04:26:06;19.90;99.90
8792;DHT22;4432;50.890;4.744;2023-08-12T04:28:31;19.90;99.90
8792;DHT22;4432;50.890;4.744;2023-08-12T04:30:57;19.90;99.90
8792;DHT22;4432;50.890;4.744;2023-08-12T04:33:23;19.80;99.90
8792;DHT22;4432;50.890;4.744;2023-08-12T04:35:49;19.90;99.90
8792;DHT22;4432;50.890;4.744;2023-08-12T04:38:15;19.80;99.90
8792;DHT22;4432;50.890;4.744;2023-08-12T04:40:42;19.80;99.90
8792;DHT22;4432;50.890;4.744;2023-08-12T04:43:08;19.90;99.90
8792;DHT22;4432;50.890;4.744;2023-08-12T04:45:34;19.90;99.90
8792;DHT22;4432;50.890;4.744;2023-08-12T04:48:00;19.90;99.90
8792;DHT22;4432;50.890;4.744;2023-08-12T04:50:30;19.90;99.90
8792;DHT22;4432;50.890;4.744;2023-08-12T04:52:56;19.90;99.90
8792;DHT22;4432;50.890;4.744;2023-08-12T04:55:22;19.80;99.90
8792;DHT22;4432;50.890;4.744;2023-08-12T04:57:47;19.90;99.90
8792;DHT22;4432;50.890;4.744;2023-08-12T05:00:13;19.90;99.90
8792;DHT22;4432;50.890;4.744;2023-08-12T05:02:40;19.80;99.90
8792;DHT22;4432;50.890;4.744;2023-08-12T05:05:06;19.90;99.90
8792;DHT22;4432;50.890;4.744;2023-08-12T05:07:31;19.90;99.90
8792;DHT22;4432;50.890;4.744;2023-08-12T05:09:59;20.00;99.90
8792;DHT22;4432;50.890;4.744;2023-08-12T05:12:25;19.90;99.90
8792;DHT22;4432;50.890;4.744;2023-08-12T05:14:50;19.90;99.90
8792;DHT22;4432;50.890;4.744;2023-08-12T05:17:16;19.90;99.90
8792;DHT22;4432;50.890;4.744;2023-08-12T05:19:42;19.90;99.90
8792;DHT22;4432;50.890;4.744;2023-08-12T05:22:08;19.90;99.90
8792;DHT22;4432;50.890;4.744;2023-08-12T05:24:33;19.90;99.90
8792;DHT22;4432;50.890;4.744;2023-08-12T05:26:59;20.00;99.90
8792;DHT22;4432;50.890;4.744;2023-08-12T05:29:25;19.90;99.90
8792;DHT22;4432;50.890;4.744;2023-08-12T05:31:51;20.00;99.90
8792;DHT22;4432;50.890;4.744;2023-08-12T05:34:17;20.00;99.90
8792;DHT22;4432;50.890;4.744;2023-08-12T05:36:42;20.00;99.90
8792;DHT22;4432;50.890;4.744;2023-08-12T05:39:08;20.00;99.90
8792;DHT22;4432;50.890;4.744;2023-08-12T05:41:34;20.00;99.90
8792;DHT22;4432;50.890;4.744;2023-08-12T05:43:59;20.00;99.90
8792;DHT22;4432;50.890;4.744;2023-08-12T05:46:25;20.00;99.90
8792;DHT22;4432;50.890;4.744;2023-08-12T05:48:51;20.00;99.90
8792;DHT22;4432;50.890;4.744;2023-08-12T05:51:17;20.00;99.90
8792;DHT22;4432;50.890;4.744;2023-08-12T05:53:42;20.00;99.90
8792;DHT22;4432;50.890;4.744;2023-08-12T05:56:08;20.10;99.90
8792;DHT22;4432;50.890;4.744;2023-08-12T05:58:34;20.00;99.90
8792;DHT22;4432;50.890;4.744;2023-08-12T06:01:00;20.10;99.90
8792;DHT22;4432;50.890;4.744;2023-08-12T06:03:25;20.20;99.90
8792;DHT22;4432;50.890;4.744;2023-08-12T06:05:51;20.20;99.90
8792;DHT22;4432;50.890;4.744;2023-08-12T06:08:17;20.20;99.90
8792;DHT22;4432;50.890;4.744;2023-08-12T06:10:43;20.20;99.90
8792;DHT22;4432;50.890;4.744;2023-08-12T06:13:09;20.20;99.90
8792;DHT22;4432;50.890;4.744;2023-08-12T06:15:34;20.10;99.90
8792;DHT22;4432;50.890;4.744;2023-08-12T06:18:01;20.20;99.90
8792;DHT22;4432;50.890;4.744;2023-08-12T06:20:27;20.20;99.90
8792;DHT22;4432;50.890;4.744;2023-08-12T06:22:53;20.20;99.90
8792;DHT22;4432;50.890;4.744;2023-08-12T06:25:19;20.20;99.90
8792;DHT22;4432;50.890;4.744;2023-08-12T06:27:45;20.20;99.90
8792;DHT22;4432;50.890;4.744;2023-08-12T06:30:12;20.20;99.90
8792;DHT22;4432;50.890;4.744;2023-08-12T06:32:38;20.20;99.90
8792;DHT22;4432;50.890;4.744;2023-08-12T06:35:04;20.10;99.90
8792;DHT22;4432;50.890;4.744;2023-08-12T06:37:30;20.20;99.90
8792;DHT22;4432;50.890;4.744;2023-08-12T06:39:56;20.20;99.90
8792;DHT22;4432;50.890;4.744;2023-08-12T06:42:22;20.20;99.90
8792;DHT22;4432;50.890;4.744;2023-08-12T06:44:55;20.30;99.90
8792;DHT22;4432;50.890;4.744;2023-08-12T06:47:21;20.30;99.90
8792;DHT22;4432;50.890;4.744;2023-08-12T06:49:47;20.30;99.90
8792;DHT22;4432;50.890;4.744;2023-08-12T06:52:13;20.40;99.90
8792;DHT22;4432;50.890;4.744;2023-08-12T06:54:38;20.50;99.90
8792;DHT22;4432;50.890;4.744;2023-08-12T06:57:04;20.50;99.90
8792;DHT22;4432;50.890;4.744;2023-08-12T06:59:30;20.60;99.90
8792;DHT22;4432;50.890;4.744;2023-08-12T07:01:56;20.70;99.90
8792;DHT22;4432;50.890;4.744;2023-08-12T07:04:22;20.70;99.90
8792;DHT22;4432;50.890;4.744;2023-08-12T07:06:48;20.70;99.90
8792;DHT22;4432;50.890;4.744;2023-08-12T07:09:14;20.70;99.90
8792;DHT22;4432;50.890;4.744;2023-08-12T07:11:52;20.80;99.90
8792;DHT22;4432;50.890;4.744;2023-08-12T07:14:18;20.80;99.90
8792;DHT22;4432;50.890;4.744;2023-08-12T07:16:44;20.80;99.90
8792;DHT22;4432;50.890;4.744;2023-08-12T07:19:09;20.80;99.90
8792;DHT22;4432;50.890;4.744;2023-08-12T07:21:35;20.70;99.90
8792;DHT22;4432;50.890;4.744;2023-08-12T07:24:01;20.60;99.90
8792;DHT22;4432;50.890;4.744;2023-08-12T07:26:26;20.70;99.90
8792;DHT22;4432;50.890;4.744;2023-08-12T07:28:52;20.70;99.90
8792;DHT22;4432;50.890;4.744;2023-08-12T07:31:18;20.80;99.90
8792;DHT22;4432;50.890;4.744;2023-08-12T07:33:44;20.90;99.90
8792;DHT22;4432;50.890;4.744;2023-08-12T07:36:10;20.90;99.90
8792;DHT22;4432;50.890;4.744;2023-08-12T07:38:35;21.00;99.90
8792;DHT22;4432;50.890;4.744;2023-08-12T07:41:01;20.90;99.90
8792;DHT22;4432;50.890;4.744;2023-08-12T07:43:27;20.90;99.90
8792;DHT22;4432;50.890;4.744;2023-08-12T07:45:53;20.90;99.90
8792;DHT22;4432;50.890;4.744;2023-08-12T07:48:20;20.90;99.90
8792;DHT22;4432;50.890;4.744;2023-08-12T07:50:46;20.90;99.90
8792;DHT22;4432;50.890;4.744;2023-08-12T07:53:15;20.90;99.90
8792;DHT22;4432;50.890;4.744;2023-08-12T07:55:42;21.00;99.90
8792;DHT22;4432;50.890;4.744;2023-08-12T07:58:08;21.00;99.90
8792;DHT22;4432;50.890;4.744;2023-08-12T08:00:33;21.00;99.90
8792;DHT22;4432;50.890;4.744;2023-08-12T08:02:59;21.00;99.90
8792;DHT22;4432;50.890;4.744;2023-08-12T08:05:25;20.90;99.90
8792;DHT22;4432;50.890;4.744;2023-08-12T08:07:51;21.00;99.90
8792;DHT22;4432;50.890;4.744;2023-08-12T08:10:16;20.90;99.90
8792;DHT22;4432;50.890;4.744;2023-08-12T08:12:42;20.90;99.90
8792;DHT22;4432;50.890;4.744;2023-08-12T08:15:08;20.80;99.90
8792;DHT22;4432;50.890;4.744;2023-08-12T08:17:34;20.70;99.90
8792;DHT22;4432;50.890;4.744;2023-08-12T08:20:00;20.60;99.90
8792;DHT22;4432;50.890;4.744;2023-08-12T08:22:25;20.60;99.90
8792;DHT22;4432;50.890;4.744;2023-08-12T08:24:51;20.50;99.90
8792;DHT22;4432;50.890;4.744;2023-08-12T08:27:17;20.50;99.90
8792;DHT22;4432;50.890;4.744;2023-08-12T08:29:43;20.40;99.90
8792;DHT22;4432;50.890;4.744;2023-08-12T08:32:08;20.30;99.90
8792;DHT22;4432;50.890;4.744;2023-08-12T08:34:34;20.10;99.90
8792;DHT22;4432;50.890;4.744;2023-08-12T08:37:00;20.20;99.90
8792;DHT22;4432;50.890;4.744;2023-08-12T08:39:25;20.20;99.90
8792;DHT22;4432;50.890;4.744;2023-08-12T08:41:54;20.20;99.90
8792;DHT22;4432;50.890;4.744;2023-08-12T08:44:22;20.20;99.90
8792;DHT22;4432;50.890;4.744;2023-08-12T08:46:51;20.40;99.90
8792;DHT22;4432;50.890;4.744;2023-08-12T08:49:18;20.50;99.90
8792;DHT22;4432;50.890;4.744;2023-08-12T08:51:46;20.50;99.90
8792;DHT22;4432;50.890;4.744;2023-08-12T08:54:12;20.50;99.90
8792;DHT22;4432;50.890;4.744;2023-08-12T08:56:39;20.50;99.90
8792;DHT22;4432;50.890;4.744;2023-08-12T08:59:05;20.60;99.90
8792;DHT22;4432;50.890;4.744;2023-08-12T09:01:31;20.90;99.90
8792;DHT22;4432;50.890;4.744;2023-08-12T09:03:57;21.00;99.90
8792;DHT22;4432;50.890;4.744;2023-08-12T09:06:28;21.10;99.90
8792;DHT22;4432;50.890;4.744;2023-08-12T09:08:54;21.20;99.90
8792;DHT22;4432;50.890;4.744;2023-08-12T09:11:20;21.20;99.90
8792;DHT22;4432;50.890;4.744;2023-08-12T09:13:47;21.40;99.90
8792;DHT22;4432;50.890;4.744;2023-08-12T09:16:14;21.60;99.90
8792;DHT22;4432;50.890;4.744;2023-08-12T09:18:42;21.50;99.90
8792;DHT22;4432;50.890;4.744;2023-08-12T09:21:09;21.40;99.90
8792;DHT22;4432;50.890;4.744;2023-08-12T09:23:38;21.50;99.90
8792;DHT22;4432;50.890;4.744;2023-08-12T09:26:14;21.50;99.90
8792;DHT22;4432;50.890;4.744;2023-08-12T09:28:43;21.90;99.90
8792;DHT22;4432;50.890;4.744;2023-08-12T09:31:27;22.10;99.90
8792;DHT22;4432;50.890;4.744;2023-08-12T09:33:57;22.10;99.90
8792;DHT22;4432;50.890;4.744;2023-08-12T09:36:23;22.00;99.90
8792;DHT22;4432;50.890;4.744;2023-08-12T09:38:49;21.80;99.90
8792;DHT22;4432;50.890;4.744;2023-08-12T09:41:15;21.70;99.90
8792;DHT22;4432;50.890;4.744;2023-08-12T09:43:44;21.50;99.90
8792;DHT22;4432;50.890;4.744;2023-08-12T09:46:11;21.10;99.90
8792;DHT22;4432;50.890;4.744;2023-08-12T09:48:40;21.10;99.90
8792;DHT22;4432;50.890;4.744;2023-08-12T09:51:07;21.00;99.90
8792;DHT22;4432;50.890;4.744;2023-08-12T09:53:33;21.10;99.90
8792;DHT22;4432;50.890;4.744;2023-08-12T09:56:07;21.50;99.90
8792;DHT22;4432;50.890;4.744;2023-08-12T09:58:37;21.60;99.90
8792;DHT22;4432;50.890;4.744;2023-08-12T10:01:06;21.80;99.90
8792;DHT22;4432;50.890;4.744;2023-08-12T10:03:36;21.90;99.90
8792;DHT22;4432;50.890;4.744;2023-08-12T10:06:03;21.90;99.90
8792;DHT22;4432;50.890;4.744;2023-08-12T10:08:29;21.60;99.90
8792;DHT22;4432;50.890;4.744;2023-08-12T10:10:55;21.50;99.90
8792;DHT22;4432;50.890;4.744;2023-08-12T10:13:21;21.30;99.90
8792;DHT22;4432;50.890;4.744;2023-08-12T10:15:49;21.30;99.90
8792;DHT22;4432;50.890;4.744;2023-08-12T10:18:15;21.00;99.90
8792;DHT22;4432;50.890;4.744;2023-08-12T10:20:43;20.70;99.90
8792;DHT22;4432;50.890;4.744;2023-08-12T10:23:15;20.60;99.90
8792;DHT22;4432;50.890;4.744;2023-08-12T10:25:43;20.80;99.90
8792;DHT22;4432;50.890;4.744;2023-08-12T10:28:09;20.70;99.90
8792;DHT22;4432;50.890;4.744;2023-08-12T10:30:35;21.00;99.90
8792;DHT22;4432;50.890;4.744;2023-08-12T10:33:01;21.00;99.90
8792;DHT22;4432;50.890;4.744;2023-08-12T10:35:49;21.30;99.90
8792;DHT22;4432;50.890;4.744;2023-08-12T10:38:19;21.40;99.90
8792;DHT22;4432;50.890;4.744;2023-08-12T10:40:46;21.40;99.90
8792;DHT22;4432;50.890;4.744;2023-08-12T10:43:12;21.50;99.90
8792;DHT22;4432;50.890;4.744;2023-08-12T10:45:42;21.30;99.90
8792;DHT22;4432;50.890;4.744;2023-08-12T10:48:17;21.10;99.90
8792;DHT22;4432;50.890;4.744;2023-08-12T10:50:49;20.90;99.90
8792;DHT22;4432;50.890;4.744;2023-08-12T10:53:32;20.80;99.90
8792;DHT22;4432;50.890;4.744;2023-08-12T10:56:11;20.50;99.90
8792;DHT22;4432;50.890;4.744;2023-08-12T10:58:46;20.80;99.90
8792;DHT22;4432;50.890;4.744;2023-08-12T11:01:19;21.50;99.90
8792;DHT22;4432;50.890;4.744;2023-08-12T11:03:45;22.10;99.90
8792;DHT22;4432;50.890;4.744;2023-08-12T11:06:12;22.50;99.90
8792;DHT22;4432;50.890;4.744;2023-08-12T11:08:52;22.60;99.90
8792;DHT22;4432;50.890;4.744;2023-08-12T11:11:24;23.00;99.90
8792;DHT22;4432;50.890;4.744;2023-08-12T11:13:58;22.90;99.90
8792;DHT22;4432;50.890;4.744;2023-08-12T11:16:36;22.80;99.90
8792;DHT22;4432;50.890;4.744;2023-08-12T11:19:03;23.10;99.90
8792;DHT22;4432;50.890;4.744;2023-08-12T11:21:29;23.30;99.90
8792;DHT22;4432;50.890;4.744;2023-08-12T11:23:55;23.20;99.90
8792;DHT22;4432;50.890;4.744;2023-08-12T11:26:25;23.40;99.90
8792;DHT22;4432;50.890;4.744;2023-08-12T11:28:50;23.60;99.90
8792;DHT22;4432;50.890;4.744;2023-08-12T11:31:17;23.30;99.90
8792;DHT22;4432;50.890;4.744;2023-08-12T11:33:43;23.50;99.90
8792;DHT22;4432;50.890;4.744;2023-08-12T11:36:09;23.60;99.90
8792;DHT22;4432;50.890;4.744;2023-08-12T11:38:35;23.70;99.90
8792;DHT22;4432;50.890;4.744;2023-08-12T11:41:01;24.10;99.90
8792;DHT22;4432;50.890;4.744;2023-08-12T11:43:28;24.00;99.90
8792;DHT22;4432;50.890;4.744;2023-08-12T11:45:59;23.70;99.90
8792;DHT22;4432;50.890;4.744;2023-08-12T11:48:27;23.90;99.90
8792;DHT22;4432;50.890;4.744;2023-08-12T11:50:53;24.00;99.90
8792;DHT22;4432;50.890;4.744;2023-08-12T11:53:21;23.70;99.90
8792;DHT22;4432;50.890;4.744;2023-08-12T11:55:47;23.70;99.90
8792;DHT22;4432;50.890;4.744;2023-08-12T11:58:14;24.00;99.90
8792;DHT22;4432;50.890;4.744;2023-08-12T12:00:46;23.90;99.90
8792;DHT22;4432;50.890;4.744;2023-08-12T12:03:12;23.90;99.90
8792;DHT22;4432;50.890;4.744;2023-08-12T12:05:37;23.90;99.90
8792;DHT22;4432;50.890;4.744;2023-08-12T12:08:04;23.90;99.90
8792;DHT22;4432;50.890;4.744;2023-08-12T12:10:33;24.10;99.90
8792;DHT22;4432;50.890;4.744;2023-08-12T12:13:00;24.30;99.90
8792;DHT22;4432;50.890;4.744;2023-08-12T12:15:26;24.40;99.90
8792;DHT22;4432;50.890;4.744;2023-08-12T12:17:52;24.30;99.90
8792;DHT22;4432;50.890;4.744;2023-08-12T12:20:19;24.10;99.90
8792;DHT22;4432;50.890;4.744;2023-08-12T12:22:47;24.40;99.90
8792;DHT22;4432;50.890;4.744;2023-08-12T12:25:14;24.50;99.90
8792;DHT22;4432;50.890;4.744;2023-08-12T12:27:42;24.50;99.90
8792;DHT22;4432;50.890;4.744;2023-08-12T12:30:10;24.40;99.90
8792;DHT22;4432;50.890;4.744;2023-08-12T12:32:36;24.40;99.90
8792;DHT22;4432;50.890;4.744;2023-08-12T12:35:02;24.60;99.90
8792;DHT22;4432;50.890;4.744;2023-08-12T12:37:38;24.70;99.90
8792;DHT22;4432;50.890;4.744;2023-08-12T12:40:04;24.10;99.90
8792;DHT22;4432;50.890;4.744;2023-08-12T12:42:32;24.40;99.90
8792;DHT22;4432;50.890;4.744;2023-08-12T12:44:58;24.60;99.90
8792;DHT22;4432;50.890;4.744;2023-08-12T12:47:24;24.40;99.90
8792;DHT22;4432;50.890;4.744;2023-08-12T12:49:50;24.50;99.90
8792;DHT22;4432;50.890;4.744;2023-08-12T12:52:16;24.50;99.90
8792;DHT22;4432;50.890;4.744;2023-08-12T12:54:41;24.40;99.90
8792;DHT22;4432;50.890;4.744;2023-08-12T12:57:07;24.40;99.90
8792;DHT22;4432;50.890;4.744;2023-08-12T12:59:33;24.20;99.90
8792;DHT22;4432;50.890;4.744;2023-08-12T13:01:58;24.30;99.90
8792;DHT22;4432;50.890;4.744;2023-08-12T13:04:24;24.60;99.90
8792;DHT22;4432;50.890;4.744;2023-08-12T13:06:50;24.70;99.90
8792;DHT22;4432;50.890;4.744;2023-08-12T13:09:16;24.80;99.90
8792;DHT22;4432;50.890;4.744;2023-08-12T13:11:42;24.90;99.90
8792;DHT22;4432;50.890;4.744;2023-08-12T13:14:07;25.10;99.90
8792;DHT22;4432;50.890;4.744;2023-08-12T13:16:33;25.00;99.90
8792;DHT22;4432;50.890;4.744;2023-08-12T13:18:59;25.00;99.90
8792;DHT22;4432;50.890;4.744;2023-08-12T13:21:25;25.30;99.90
8792;DHT22;4432;50.890;4.744;2023-08-12T13:23:51;25.00;99.90
8792;DHT22;4432;50.890;4.744;2023-08-12T13:26:17;24.70;99.90
8792;DHT22;4432;50.890;4.744;2023-08-12T13:28:43;24.60;99.90
8792;DHT22;4432;50.890;4.744;2023-08-12T13:31:09;24.70;99.90
8792;DHT22;4432;50.890;4.744;2023-08-12T13:33:35;25.00;99.90
8792;DHT22;4432;50.890;4.744;2023-08-12T13:36:01;25.10;99.90
8792;DHT22;4432;50.890;4.744;2023-08-12T13:38:27;25.30;99.90
8792;DHT22;4432;50.890;4.744;2023-08-12T13:40:52;25.40;99.90
8792;DHT22;4432;50.890;4.744;2023-08-12T13:43:18;25.50;99.90
8792;DHT22;4432;50.890;4.744;2023-08-12T13:45:44;25.70;99.90
8792;DHT22;4432;50.890;4.744;2023-08-12T13:48:09;25.30;99.90
8792;DHT22;4432;50.890;4.744;2023-08-12T13:50:35;25.20;99.90
8792;DHT22;4432;50.890;4.744;2023-08-12T13:53:02;25.00;99.90
8792;DHT22;4432;50.890;4.744;2023-08-12T13:55:28;24.80;99.90
8792;DHT22;4432;50.890;4.744;2023-08-12T13:57:54;25.10;99.90
8792;DHT22;4432;50.890;4.744;2023-08-12T14:00:20;25.20;99.90
8792;DHT22;4432;50.890;4.744;2023-08-12T14:02:46;25.20;99.90
8792;DHT22;4432;50.890;4.744;2023-08-12T14:05:14;25.10;99.90
8792;DHT22;4432;50.890;4.744;2023-08-12T14:07:40;25.20;99.90
8792;DHT22;4432;50.890;4.744;2023-08-12T14:10:07;25.10;99.90
8792;DHT22;4432;50.890;4.744;2023-08-12T14:12:32;25.30;99.90
8792;DHT22;4432;50.890;4.744;2023-08-12T14:14:58;25.40;99.90
8792;DHT22;4432;50.890;4.744;2023-08-12T14:17:24;25.00;99.90
8792;DHT22;4432;50.890;4.744;2023-08-12T14:19:51;24.80;99.90
8792;DHT22;4432;50.890;4.744;2023-08-12T14:22:19;25.00;99.90
8792;DHT22;4432;50.890;4.744;2023-08-12T14:24:45;24.90;99.90
8792;DHT22;4432;50.890;4.744;2023-08-12T14:27:14;25.10;99.90
8792;DHT22;4432;50.890;4.744;2023-08-12T14:29:40;25.30;99.90
8792;DHT22;4432;50.890;4.744;2023-08-12T14:32:06;25.40;99.90
8792;DHT22;4432;50.890;4.744;2023-08-12T14:34:31;25.40;99.90
8792;DHT22;4432;50.890;4.744;2023-08-12T14:36:57;25.10;99.90
8792;DHT22;4432;50.890;4.744;2023-08-12T14:39:23;25.00;99.90
8792;DHT22;4432;50.890;4.744;2023-08-12T14:41:48;25.00;99.90
8792;DHT22;4432;50.890;4.744;2023-08-12T14:44:14;25.00;99.90
8792;DHT22;4432;50.890;4.744;2023-08-12T14:46:41;24.80;99.90
8792;DHT22;4432;50.890;4.744;2023-08-12T14:49:06;24.60;99.90
8792;DHT22;4432;50.890;4.744;2023-08-12T14:51:32;24.30;99.90
8792;DHT22;4432;50.890;4.744;2023-08-12T14:53:58;24.40;99.90
8792;DHT22;4432;50.890;4.744;2023-08-12T14:56:24;24.60;99.90
8792;DHT22;4432;50.890;4.744;2023-08-12T14:58:50;24.90;99.90
8792;DHT22;4432;50.890;4.744;2023-08-12T15:01:15;25.30;99.90
8792;DHT22;4432;50.890;4.744;2023-08-12T15:03:42;25.50;99.90
8792;DHT22;4432;50.890;4.744;2023-08-12T15:06:08;25.50;99.90
8792;DHT22;4432;50.890;4.744;2023-08-12T15:08:33;25.60;99.90
8792;DHT22;4432;50.890;4.744;2023-08-12T15:10:59;25.30;99.90
8792;DHT22;4432;50.890;4.744;2023-08-12T15:13:25;25.20;99.90
8792;DHT22;4432;50.890;4.744;2023-08-12T15:15:51;25.20;99.90
8792;DHT22;4432;50.890;4.744;2023-08-12T15:18:17;25.20;99.90
8792;DHT22;4432;50.890;4.744;2023-08-12T15:20:43;25.30;99.90
8792;DHT22;4432;50.890;4.744;2023-08-12T15:23:09;25.20;99.90
8792;DHT22;4432;50.890;4.744;2023-08-12T15:25:35;25.30;99.90
8792;DHT22;4432;50.890;4.744;2023-08-12T15:28:01;25.20;99.90
8792;DHT22;4432;50.890;4.744;2023-08-12T15:30:29;25.30;99.90
8792;DHT22;4432;50.890;4.744;2023-08-12T15:32:55;25.30;99.90
8792;DHT22;4432;50.890;4.744;2023-08-12T15:35:20;25.20;99.90
8792;DHT22;4432;50.890;4.744;2023-08-12T15:37:47;24.90;99.90
8792;DHT22;4432;50.890;4.744;2023-08-12T15:40:13;24.80;99.90
8792;DHT22;4432;50.890;4.744;2023-08-12T15:42:39;24.60;99.90
8792;DHT22;4432;50.890;4.744;2023-08-12T15:45:05;24.60;99.90
8792;DHT22;4432;50.890;4.744;2023-08-12T15:47:31;24.50;99.90
8792;DHT22;4432;50.890;4.744;2023-08-12T15:50:00;24.30;99.90
8792;DHT22;4432;50.890;4.744;2023-08-12T15:52:26;24.40;99.90
8792;DHT22;4432;50.890;4.744;2023-08-12T15:54:52;24.70;99.90
8792;DHT22;4432;50.890;4.744;2023-08-12T15:57:18;24.90;99.90
8792;DHT22;4432;50.890;4.744;2023-08-12T15:59:44;24.80;99.90